Time;durP1;ratioP1;P1;durP2;ratioP2;P2;SDS_P1;SDS_P2;PMS_P1;PMS_P2;Temp;Humidity;BMP_temperature;BMP_pressure;BME280_temperature;BME280_humidity;BME280_pressure;Samples;Min_cycle;Max_cycle;Signal;HPM_P1;HPM_P2
2021/11/01 00:00:38;;;;;;;36.55;31.42;;;12.50;99.90;;;;;;5034377;28;20116;-86
2021/11/01 00:03:05;;;;;;;40.72;31.45;;;12.40;99.90;;;;;;5058646;28;20617;-82
2021/11/01 00:05:31;;;;;;;39.22;29.83;;;12.40;99.90;;;;;;5054412;28;20100;-84
2021/11/01 00:07:56;;;;;;;37.35;30.88;;;12.30;99.90;;;;;;5052825;28;20068;-84
2021/11/01 00:10:22;;;;;;;40.85;31.52;;;12.20;99.90;;;;;;5045187;28;20025;-85
2021/11/01 00:12:48;;;;;;;37.13;30.83;;;12.10;99.90;;;;;;5044700;28;20037;-85
2021/11/01 00:15:14;;;;;;;41.80;32.05;;;12.10;99.90;;;;;;5051912;28;20159;-84
2021/11/01 00:17:40;;;;;;;39.67;30.52;;;12.00;99.90;;;;;;5047389;28;20403;-84
2021/11/01 00:20:08;;;;;;;37.13;31.05;;;12.00;99.90;;;;;;5033848;28;20028;-85
2021/11/01 00:22:35;;;;;;;37.40;30.48;;;12.00;99.90;;;;;;5037581;28;20353;-86
2021/11/01 00:25:02;;;;;;;35.63;30.55;;;12.00;99.90;;;;;;5049623;28;20025;-85
2021/11/01 00:27:28;;;;;;;38.05;30.45;;;12.10;99.90;;;;;;5052333;28;20017;-86
2021/11/01 00:29:53;;;;;;;35.92;30.75;;;12.10;99.90;;;;;;5039259;28;20036;-86
2021/11/01 00:32:19;;;;;;;37.72;30.08;;;12.10;99.90;;;;;;5043569;28;20037;-86
2021/11/01 00:34:45;;;;;;;38.67;30.55;;;12.20;99.90;;;;;;5052517;28;20086;-86
2021/11/01 00:37:11;;;;;;;40.97;31.85;;;12.30;99.90;;;;;;5044457;28;20534;-86
2021/11/01 00:39:37;;;;;;;38.08;31.35;;;12.40;99.90;;;;;;5041345;28;20052;-86
2021/11/01 00:42:05;;;;;;;38.47;30.30;;;12.40;99.90;;;;;;5040658;28;20060;-84
2021/11/01 00:44:31;;;;;;;41.08;30.23;;;12.40;99.90;;;;;;5048750;28;20120;-85
2021/11/01 00:46:58;;;;;;;40.92;30.00;;;12.50;99.90;;;;;;5039181;28;20029;-85
2021/11/01 00:49:27;;;;;;;38.13;29.67;;;12.50;99.90;;;;;;5053812;28;20356;-85
2021/11/01 00:51:57;;;;;;;39.75;32.13;;;12.50;99.90;;;;;;5049224;28;20475;-84
2021/11/01 00:54:22;;;;;;;43.08;32.25;;;12.50;99.90;;;;;;5033551;28;20059;-85
2021/11/01 00:56:48;;;;;;;41.35;32.13;;;12.40;99.90;;;;;;5035853;28;20045;-86
2021/11/01 00:59:14;;;;;;;44.13;33.40;;;12.40;99.90;;;;;;5042497;28;20072;-86
2021/11/01 01:01:40;;;;;;;40.17;32.78;;;12.30;99.90;;;;;;5036701;28;20037;-86
2021/11/01 01:04:06;;;;;;;38.78;31.48;;;12.30;99.90;;;;;;5043569;28;20021;-85
2021/11/01 01:06:32;;;;;;;40.20;34.00;;;12.20;99.90;;;;;;5053269;28;20021;-85
2021/11/01 01:08:58;;;;;;;38.28;31.10;;;12.10;99.90;;;;;;5036254;28;20481;-84
2021/11/01 01:11:24;;;;;;;39.05;32.88;;;12.00;99.90;;;;;;5034485;28;20017;-85
2021/11/01 01:13:52;;;;;;;40.05;32.58;;;11.90;99.90;;;;;;5047478;28;20036;-84
2021/11/01 01:18:46;;;;;;;40.05;31.52;;;11.70;99.90;;;;;;5043504;28;20510;-87
2021/11/01 01:22:13;;;;;;;40.35;31.73;;;11.60;99.90;;;;;;5052347;28;20025;-86
2021/11/01 01:23:58;;;;;;;39.78;31.88;;;11.60;99.90;;;;;;5033190;28;20459;-85
2021/11/01 01:26:24;;;;;;;40.83;31.83;;;11.60;99.90;;;;;;5036738;28;20021;-86
2021/11/01 01:28:50;;;;;;;37.72;32.28;;;11.60;99.90;;;;;;5046016;28;20048;-84
2021/11/01 01:31:16;;;;;;;45.47;32.45;;;11.60;99.90;;;;;;5033848;28;20071;-85
2021/11/01 01:33:42;;;;;;;38.47;31.90;;;11.60;99.90;;;;;;5057091;28;20037;-85
2021/11/01 01:36:08;;;;;;;42.28;31.75;;;11.70;99.90;;;;;;5032306;28;20025;-85
2021/11/01 01:38:35;;;;;;;33.97;29.77;;;11.80;99.90;;;;;;5081795;28;20120;-85
2021/11/01 01:41:23;;;;;;;36.83;29.77;;;12.00;99.90;;;;;;5031980;28;20056;-85
2021/11/01 01:43:52;;;;;;;38.10;29.80;;;12.10;99.90;;;;;;5037113;28;20368;-85
2021/11/01 01:46:19;;;;;;;36.90;29.17;;;12.10;99.90;;;;;;5031749;28;20116;-86
2021/11/01 01:48:45;;;;;;;34.13;28.92;;;12.20;99.90;;;;;;5051820;28;20468;-85
2021/11/01 01:51:13;;;;;;;37.03;28.85;;;12.30;99.90;;;;;;5050230;28;20035;-85
2021/11/01 01:53:40;;;;;;;37.13;28.52;;;12.40;99.90;;;;;;5036234;28;20124;-86
2021/11/01 01:56:06;;;;;;;32.88;28.95;;;12.40;99.90;;;;;;5050857;28;20027;-87
2021/11/01 01:58:37;;;;;;;36.03;29.17;;;12.40;99.90;;;;;;5052754;28;20092;-86
2021/11/01 02:01:09;;;;;;;35.28;29.50;;;12.40;99.90;;;;;;5051200;28;20080;-86
2021/11/01 02:03:38;;;;;;;35.55;29.63;;;12.50;99.90;;;;;;5043167;28;20022;-86
2021/11/01 02:06:11;;;;;;;34.25;27.98;;;12.50;99.90;;;;;;5049266;28;20033;-86
2021/11/01 02:08:44;;;;;;;33.90;27.25;;;12.50;99.90;;;;;;5050294;28;20112;-86
2021/11/01 02:11:15;;;;;;;33.55;29.27;;;12.40;99.90;;;;;;5051548;28;20032;-85
2021/11/01 02:13:47;;;;;;;33.83;28.98;;;12.30;99.90;;;;;;5050074;28;20040;-86
2021/11/01 02:16:14;;;;;;;39.83;30.38;;;12.20;99.90;;;;;;5051502;28;20075;-85
2021/11/01 02:18:43;;;;;;;36.03;29.27;;;12.20;99.90;;;;;;5043629;28;20028;-86
2021/11/01 02:21:17;;;;;;;34.38;28.42;;;12.10;99.90;;;;;;5051900;28;20017;-86
2021/11/01 02:23:52;;;;;;;37.95;28.45;;;12.10;99.90;;;;;;5050972;28;20024;-86
2021/11/01 02:26:19;;;;;;;40.28;28.70;;;12.20;99.90;;;;;;5050395;28;20163;-85
2021/11/01 02:28:47;;;;;;;37.45;28.38;;;12.20;99.90;;;;;;5037419;28;20468;-85
2021/11/01 02:31:19;;;;;;;34.42;29.08;;;12.20;99.90;;;;;;5050393;28;20035;-86
2021/11/01 02:33:49;;;;;;;39.88;30.88;;;12.10;99.90;;;;;;5047824;28;20029;-85
2021/11/01 02:36:17;;;;;;;34.15;29.50;;;12.10;99.90;;;;;;5051423;28;20097;-86
2021/11/01 02:38:44;;;;;;;37.17;30.10;;;12.00;99.90;;;;;;5051042;28;20617;-87
2021/11/01 02:41:27;;;;;;;43.65;32.08;;;11.90;99.90;;;;;;5052330;28;20017;-87
2021/11/01 02:43:56;;;;;;;42.30;32.58;;;11.70;99.90;;;;;;5052301;28;20028;-87
2021/11/01 02:46:23;;;;;;;41.53;33.88;;;11.70;99.90;;;;;;5052258;28;20024;-86
2021/11/01 02:48:50;;;;;;;42.47;32.72;;;11.60;99.90;;;;;;5051146;28;20027;-86
2021/11/01 02:51:17;;;;;;;45.88;32.50;;;11.60;99.90;;;;;;5051989;28;20021;-86
2021/11/01 02:53:44;;;;;;;40.13;31.15;;;11.50;99.90;;;;;;5047757;28;20033;-87
2021/11/01 02:56:11;;;;;;;39.28;31.00;;;11.50;99.90;;;;;;5032920;28;20018;-86
2021/11/01 02:58:39;;;;;;;38.75;30.63;;;11.40;99.90;;;;;;5041883;28;20028;-85
2021/11/01 03:01:06;;;;;;;35.85;29.30;;;11.30;99.90;;;;;;5052791;28;20041;-85
2021/11/01 03:03:32;;;;;;;36.28;29.33;;;11.30;99.90;;;;;;5032009;28;20105;-85
2021/11/01 03:06:00;;;;;;;37.45;30.65;;;11.20;99.90;;;;;;5032890;28;20075;-83
2021/11/01 03:08:26;;;;;;;38.90;31.08;;;11.20;99.90;;;;;;5039397;28;20025;-85
2021/11/01 03:10:53;;;;;;;38.72;30.20;;;11.30;99.90;;;;;;5056192;28;20025;-86
2021/11/01 03:13:19;;;;;;;32.70;28.00;;;11.30;99.90;;;;;;5055239;28;20167;-85
2021/11/01 03:15:46;;;;;;;36.13;29.77;;;11.40;99.90;;;;;;5055390;28;20506;-86
2021/11/01 03:18:13;;;;;;;37.53;28.88;;;11.40;99.90;;;;;;5071561;28;20032;-86
2021/11/01 03:20:43;;;;;;;36.60;29.08;;;11.50;99.90;;;;;;5035784;28;20026;-86
2021/11/01 03:23:15;;;;;;;36.28;27.15;;;11.60;99.90;;;;;;5042478;28;20305;-84
2021/11/01 03:26:10;;;;;;;39.97;27.50;;;11.70;99.90;;;;;;5035616;28;20128;-86
2021/11/01 03:28:37;;;;;;;40.92;28.05;;;11.80;99.90;;;;;;5033266;28;20030;-85
2021/11/01 03:31:05;;;;;;;36.25;27.42;;;11.90;99.90;;;;;;5036029;28;20026;-85
2021/11/01 03:33:39;;;;;;;36.35;29.13;;;11.90;99.90;;;;;;5035132;28;20033;-85
2021/11/01 03:36:09;;;;;;;40.15;28.30;;;11.90;99.90;;;;;;5036003;28;20017;-85
2021/11/01 03:38:37;;;;;;;30.50;26.60;;;12.00;99.90;;;;;;5049245;28;20032;-86
2021/11/01 03:41:08;;;;;;;37.63;26.95;;;12.10;99.90;;;;;;5054678;28;20383;-85
2021/11/01 03:43:44;;;;;;;32.75;25.58;;;12.20;99.90;;;;;;5042049;28;20045;-86
2021/11/01 03:46:12;;;;;;;30.73;26.25;;;12.20;99.90;;;;;;5036855;28;20026;-86
2021/11/01 03:48:43;;;;;;;33.90;26.42;;;12.30;99.90;;;;;;5055331;28;20494;-85
2021/11/01 03:51:12;;;;;;;30.60;25.05;;;12.40;99.90;;;;;;5054295;28;20021;-85
2021/11/01 03:53:39;;;;;;;34.78;26.60;;;12.40;99.90;;;;;;5037354;28;20051;-85
2021/11/01 03:56:06;;;;;;;34.42;25.27;;;12.40;99.90;;;;;;5035864;28;20022;-86
2021/11/01 03:58:33;;;;;;;35.25;26.13;;;12.50;99.90;;;;;;5036655;28;20052;-86
2021/11/01 04:01:00;;;;;;;33.80;25.73;;;12.60;99.90;;;;;;5035183;28;20056;-86
2021/11/01 04:03:26;;;;;;;28.00;24.20;;;12.60;99.90;;;;;;5050422;28;20480;-86
2021/11/01 04:05:58;;;;;;;29.33;24.88;;;12.70;99.90;;;;;;5035088;28;20025;-86
2021/11/01 04:08:24;;;;;;;31.23;24.58;;;12.70;99.90;;;;;;5054694;28;20013;-84
2021/11/01 04:10:49;;;;;;;31.70;24.08;;;12.70;99.90;;;;;;5054761;28;20411;-86
2021/11/01 04:13:16;;;;;;;26.30;23.02;;;12.80;99.90;;;;;;5052784;28;20507;-85
2021/11/01 04:15:47;;;;;;;27.00;22.98;;;12.80;99.90;;;;;;5054786;28;20020;-85
2021/11/01 04:18:23;;;;;;;29.42;23.35;;;12.90;99.90;;;;;;5054047;28;20044;-87
2021/11/01 04:20:53;;;;;;;26.83;22.55;;;13.00;99.90;;;;;;5046878;28;20067;-86
2021/11/01 04:23:22;;;;;;;29.08;24.20;;;13.00;99.90;;;;;;5053885;28;20072;-86
2021/11/01 04:25:48;;;;;;;34.35;24.20;;;12.90;99.90;;;;;;5053229;28;20424;-86
2021/11/01 04:28:14;;;;;;;31.67;24.55;;;12.90;99.90;;;;;;5046999;28;20120;-86
2021/11/01 04:30:42;;;;;;;29.73;24.70;;;13.00;99.90;;;;;;5042711;28;20435;-86
2021/11/01 04:33:12;;;;;;;29.88;25.55;;;12.90;99.90;;;;;;5051664;28;20032;-87
2021/11/01 04:35:38;;;;;;;30.38;24.90;;;13.00;99.90;;;;;;5052937;28;20021;-86
2021/11/01 04:40:50;;;;;;;29.50;23.25;;;13.00;99.90;;;;;;5034305;28;20044;-86
2021/11/01 04:54:13;;;;;;;30.48;25.98;;;12.80;99.90;;;;;;5034413;28;20045;-85
2021/11/01 04:56:39;;;;;;;26.65;23.63;;;12.90;99.90;;;;;;5037413;28;20516;-85
2021/11/01 04:59:04;;;;;;;29.20;23.55;;;12.90;99.90;;;;;;5044532;28;20033;-86
2021/11/01 05:01:37;;;;;;;32.92;25.70;;;12.90;99.90;;;;;;5052720;28;20049;-85
2021/11/01 05:04:07;;;;;;;31.15;25.38;;;13.00;99.90;;;;;;5052696;28;20083;-85
2021/11/01 05:06:35;;;;;;;42.80;30.45;;;13.00;99.90;;;;;;5053347;28;20053;-85
2021/11/01 05:09:07;;;;;;;37.47;30.65;;;13.10;99.90;;;;;;5040037;28;20031;-85
2021/11/01 05:11:38;;;;;;;41.63;32.38;;;13.20;99.90;;;;;;5051803;28;20025;-84
2021/11/01 05:14:04;;;;;;;40.30;31.00;;;13.10;99.90;;;;;;5033620;28;20037;-86
2021/11/01 05:19:32;;;;;;;33.45;29.75;;;13.20;99.90;;;;;;5038928;28;20033;-85
2021/11/01 05:24:43;;;;;;;34.00;27.08;;;13.40;99.90;;;;;;5033537;28;20032;-85
2021/11/01 05:29:40;;;;;;;28.73;24.88;;;13.40;99.90;;;;;;5052281;28;20613;-84
2021/11/01 05:32:12;;;;;;;27.55;24.27;;;13.50;99.90;;;;;;5049939;28;20036;-85
2021/11/01 05:34:37;;;;;;;29.88;24.20;;;13.50;99.90;;;;;;5045770;28;20033;-84
2021/11/01 05:37:04;;;;;;;30.05;23.27;;;13.40;99.90;;;;;;5053251;28;20072;-85
2021/11/01 05:39:29;;;;;;;29.38;24.10;;;13.40;99.90;;;;;;5051757;28;20116;-84
2021/11/01 05:41:55;;;;;;;32.65;25.00;;;13.40;99.90;;;;;;5052047;28;20062;-85
2021/11/01 05:44:22;;;;;;;36.00;23.40;;;13.50;99.90;;;;;;5032910;28;20025;-86
2021/11/01 05:46:52;;;;;;;29.67;25.48;;;13.50;99.90;;;;;;5038768;28;20028;-86
2021/11/01 05:49:20;;;;;;;29.92;25.02;;;13.50;99.90;;;;;;5034740;28;20368;-86
2021/11/01 05:51:46;;;;;;;28.88;24.20;;;13.50;99.90;;;;;;5038765;28;20021;-86
2021/11/01 05:54:16;;;;;;;32.13;24.83;;;13.50;99.90;;;;;;5053523;28;20036;-86
2021/11/01 05:56:59;;;;;;;29.00;24.00;;;13.50;99.90;;;;;;5053074;28;20475;-86
2021/11/01 06:05:04;;;;;;;24.90;21.58;;;13.40;99.90;;;;;;5053214;28;20039;-85
2021/11/01 06:07:39;;;;;;;28.13;22.85;;;13.50;99.90;;;;;;5042461;28;20464;-86
2021/11/01 06:15:26;;;;;;;25.27;21.58;;;13.70;99.90;;;;;;5053465;28;20036;-86
2021/11/01 06:17:52;;;;;;;27.88;22.52;;;13.70;99.90;;;;;;5044546;28;20500;-87
2021/11/01 06:20:18;;;;;;;28.15;22.55;;;13.70;99.90;;;;;;5034949;28;20025;-86
2021/11/01 06:22:44;;;;;;;33.65;22.35;;;13.70;99.90;;;;;;5034274;28;20025;-86
2021/11/01 06:25:13;;;;;;;29.58;21.63;;;13.70;99.90;;;;;;5033422;28;20401;-88
2021/11/01 06:27:39;;;;;;;28.48;23.17;;;13.70;99.90;;;;;;5041912;28;20463;-85
2021/11/01 06:30:19;;;;;;;32.38;23.67;;;13.80;99.90;;;;;;5052948;28;20036;-84
2021/11/01 07:16:08;;;;;;;22.85;20.42;;;13.80;99.90;;;;;;5058936;28;20114;-89
2021/11/01 07:18:48;;;;;;;24.42;21.10;;;13.90;99.90;;;;;;5042563;28;20110;-87
2021/11/01 08:29:58;;;;;;;23.95;20.30;;;15.40;99.90;;;;;;5021695;28;20069;-88
2021/11/01 08:51:16;;;;;;;24.35;19.25;;;16.40;99.90;;;;;;5038543;28;20022;-83
2021/11/01 09:07:29;;;;;;;23.40;19.75;;;16.00;99.90;;;;;;5035284;28;20498;-86
2021/11/01 09:21:18;;;;;;;23.75;21.23;;;15.90;99.90;;;;;;5053057;28;20048;-82
2021/11/01 09:28:37;;;;;;;30.15;25.10;;;15.80;99.90;;;;;;5036186;28;20108;-85
2021/11/01 09:41:52;;;;;;;30.67;26.05;;;15.10;99.90;;;;;;5036278;28;20028;-88
2021/11/01 09:44:23;;;;;;;43.47;30.08;;;15.00;99.90;;;;;;5031672;28;20060;-86
2021/11/01 09:46:49;;;;;;;38.60;34.33;;;15.00;99.90;;;;;;5037509;28;20025;-84
2021/11/01 09:49:16;;;;;;;46.88;37.55;;;15.10;99.90;;;;;;5051345;28;20031;-84
2021/11/01 09:51:44;;;;;;;47.33;38.50;;;15.10;99.90;;;;;;5064385;28;20036;-84
2021/11/01 09:54:19;;;;;;;39.63;32.72;;;15.20;99.90;;;;;;5067706;28;20028;-85
2021/11/01 09:56:55;;;;;;;36.63;32.08;;;15.20;99.90;;;;;;5044149;28;20059;-85
2021/11/01 09:59:23;;;;;;;37.58;31.45;;;15.20;99.90;;;;;;5049817;28;20029;-86
2021/11/01 10:01:52;;;;;;;38.10;32.92;;;15.20;99.90;;;;;;5047937;28;20484;-88
2021/11/01 10:04:30;;;;;;;44.92;34.38;;;15.30;99.90;;;;;;5052904;28;20074;-85
2021/11/01 10:09:44;;;;;;;46.80;35.42;;;15.30;99.90;;;;;;5041679;28;20503;-87
2021/11/01 10:12:32;;;;;;;43.03;35.35;;;15.30;99.90;;;;;;5040448;28;20181;-88
2021/11/01 10:18:03;;;;;;;40.50;34.97;;;15.20;99.90;;;;;;5051390;28;20564;-84
2021/11/01 10:20:31;;;;;;;41.42;35.13;;;15.30;99.90;;;;;;5053132;28;20032;-84
2021/11/01 10:22:57;;;;;;;42.38;35.42;;;15.30;99.90;;;;;;5040582;28;20029;-84
2021/11/01 10:25:24;;;;;;;43.22;34.35;;;15.30;99.90;;;;;;5050804;28;20082;-83
2021/11/01 10:27:56;;;;;;;39.03;33.55;;;15.40;99.90;;;;;;5044222;28;20411;-86
2021/11/01 10:30:30;;;;;;;40.83;34.35;;;15.40;99.90;;;;;;5042498;28;20056;-89
2021/11/01 10:33:00;;;;;;;36.60;31.08;;;15.30;99.90;;;;;;5042652;28;20089;-86
2021/11/01 10:35:34;;;;;;;33.17;27.23;;;15.20;99.90;;;;;;5039516;28;20588;-82
2021/11/01 10:38:01;;;;;;;32.85;28.77;;;15.20;99.90;;;;;;5037474;28;20557;-89
2021/11/01 10:40:30;;;;;;;31.40;27.27;;;15.20;99.90;;;;;;5038924;28;20029;-90
2021/11/01 10:43:08;;;;;;;25.00;20.35;;;15.20;99.90;;;;;;5051733;28;20036;-85
2021/11/01 11:13:34;;;;;;;33.67;27.85;;;14.60;99.90;;;;;;5050481;28;20041;-84
2021/11/01 11:16:02;;;;;;;38.22;29.85;;;14.70;99.90;;;;;;5053216;28;20028;-82
2021/11/01 11:49:11;;;;;;;49.92;40.70;;;14.20;99.90;;;;;;5038125;28;20090;-82
2021/11/01 11:51:59;;;;;;;44.88;37.78;;;14.30;99.90;;;;;;5051528;28;20080;-85
2021/11/01 11:54:45;;;;;;;53.28;42.60;;;14.30;99.90;;;;;;5040528;28;20395;-84
2021/11/01 11:57:25;;;;;;;63.72;45.67;;;14.50;99.90;;;;;;5049604;28;20492;-85
2021/11/01 11:59:53;;;;;;;45.38;38.83;;;14.50;99.90;;;;;;5056039;28;20036;-87
2021/11/01 12:02:43;;;;;;;47.45;38.42;;;14.50;99.90;;;;;;5053041;28;20048;-89
2021/11/01 12:05:19;;;;;;;45.75;37.22;;;14.40;99.90;;;;;;5055035;28;20029;-81
2021/11/01 12:07:52;;;;;;;54.13;42.25;;;14.40;99.90;;;;;;5047311;28;20567;-88
2021/11/01 12:11:00;;;;;;;52.22;38.30;;;14.40;99.90;;;;;;5053622;28;20545;-81
2021/11/01 12:18:39;;;;;;;50.35;40.85;;;14.40;99.90;;;;;;5051625;28;20086;-79
2021/11/01 12:21:05;;;;;;;56.55;44.38;;;14.50;99.90;;;;;;5050556;28;20052;-85
2021/11/01 12:23:37;;;;;;;53.28;42.55;;;14.50;99.90;;;;;;5050883;28;20049;-84
2021/11/01 12:26:11;;;;;;;55.15;42.05;;;14.50;99.90;;;;;;5051058;28;20025;-86
2021/11/01 12:28:39;;;;;;;53.67;42.03;;;14.50;99.90;;;;;;5039060;28;20133;-88
2021/11/01 12:31:09;;;;;;;46.65;39.15;;;14.50;99.90;;;;;;5034024;28;20063;-84
2021/11/01 12:33:39;;;;;;;54.13;44.88;;;14.60;99.90;;;;;;5048285;28;20025;-84
2021/11/01 12:36:07;;;;;;;48.75;38.58;;;14.60;99.90;;;;;;5046224;28;20053;-83
2021/11/01 12:38:51;;;;;;;55.45;43.35;;;14.60;99.90;;;;;;5045585;28;20025;-82
2021/11/01 12:42:21;;;;;;;55.53;43.65;;;14.60;99.90;;;;;;5046946;28;20067;-83
2021/11/01 12:57:47;;;;;;;47.30;37.05;;;14.60;99.90;;;;;;5008881;28;20037;-85
2021/11/01 13:00:14;;;;;;;41.20;32.50;;;14.60;99.90;;;;;;5049229;28;20040;-87
2021/11/01 13:02:43;;;;;;;27.90;24.88;;;14.70;99.90;;;;;;5052862;28;20073;-87
2021/11/01 13:05:25;;;;;;;29.20;25.65;;;14.70;99.90;;;;;;5051900;28;20410;-85
2021/11/01 13:08:03;;;;;;;26.73;23.92;;;14.80;99.90;;;;;;5045478;28;20140;-85
2021/11/01 13:18:14;;;;;;;28.73;24.27;;;14.80;99.90;;;;;;5043055;28;20025;-90
2021/11/01 13:20:47;;;;;;;36.25;29.10;;;14.90;99.90;;;;;;5033363;28;20091;-84
2021/11/01 13:23:15;;;;;;;34.03;26.13;;;15.00;99.90;;;;;;5038946;28;20052;-87
2021/11/01 13:39:04;;;;;;;30.23;23.98;;;15.20;99.90;;;;;;5040890;28;20479;-85
2021/11/01 13:41:30;;;;;;;28.75;24.50;;;15.30;99.90;;;;;;5051706;28;20021;-85
2021/11/01 13:44:11;;;;;;;22.83;20.35;;;15.30;99.90;;;;;;5045249;28;20051;-86
2021/11/01 13:46:45;;;;;;;34.88;25.73;;;15.30;99.90;;;;;;5047998;28;20029;-83
2021/11/01 13:49:11;;;;;;;21.90;19.52;;;15.30;99.90;;;;;;5044460;28;20044;-85
2021/11/01 13:51:39;;;;;;;29.90;22.38;;;15.50;99.90;;;;;;5049092;28;20069;-85
2021/11/01 13:56:45;;;;;;;42.70;26.08;;;15.60;99.90;;;;;;5056796;28;20074;-86
2021/11/01 14:02:48;;;;;;;39.05;28.42;;;15.70;99.90;;;;;;5028072;28;20061;-86
2021/11/01 14:16:18;;;;;;;25.42;20.95;;;15.50;99.90;;;;;;5051551;28;20170;-83
2021/11/01 14:58:07;;;;;;;37.47;19.52;;;15.60;99.90;;;;;;5046573;28;20043;-83
2021/11/01 15:00:44;;;;;;;27.00;19.88;;;15.60;99.90;;;;;;5048207;28;20049;-81
2021/11/01 15:13:56;;;;;;;24.52;18.02;;;15.50;99.90;;;;;;5053622;28;20031;-81
2021/11/01 16:15:19;;;;;;;28.33;17.05;;;15.40;99.90;;;;;;5045145;28;20025;-83
2021/11/01 16:16:37;;;;;;;19.60;14.05;;;15.70;99.90;;;;;;5043833;28;20533;-83
2021/11/01 16:19:01;;;;;;;23.30;14.48;;;15.70;99.90;;;;;;5042822;28;20048;-84
2021/11/01 16:21:36;;;;;;;19.75;13.68;;;15.60;99.90;;;;;;5039936;28;20144;-85
2021/11/01 16:24:02;;;;;;;26.55;13.70;;;15.70;99.90;;;;;;5043133;28;20057;-85
2021/11/01 16:26:32;;;;;;;17.73;13.68;;;15.70;99.90;;;;;;5049043;28;20040;-86
2021/11/01 16:29:08;;;;;;;20.40;14.20;;;15.70;99.90;;;;;;5053520;28;20062;-85
2021/11/01 16:36:57;;;;;;;20.63;14.30;;;15.70;99.90;;;;;;5049551;28;20022;-87
2021/11/01 16:39:47;;;;;;;20.63;12.90;;;15.80;99.90;;;;;;5046867;28;20033;-86
2021/11/01 16:42:15;;;;;;;19.15;13.63;;;15.90;99.90;;;;;;5044087;28;20025;-85
2021/11/01 16:44:42;;;;;;;19.00;12.48;;;15.90;99.90;;;;;;5043103;28;20033;-84
2021/11/01 16:47:08;;;;;;;17.63;13.15;;;15.90;99.90;;;;;;5050373;28;21182;-86
2021/11/01 16:49:34;;;;;;;21.35;12.77;;;15.90;99.90;;;;;;5050261;28;20032;-82
2021/11/01 16:52:09;;;;;;;19.20;12.82;;;15.90;99.90;;;;;;5045612;28;20021;-84
2021/11/01 16:54:37;;;;;;;15.38;12.32;;;15.90;99.90;;;;;;5046701;28;20025;-85
2021/11/01 16:57:20;;;;;;;19.70;12.57;;;15.80;99.90;;;;;;5054154;28;20017;-84
2021/11/01 17:02:38;;;;;;;15.85;13.30;;;15.80;99.90;;;;;;5038126;28;20500;-85
2021/11/01 17:05:22;;;;;;;24.17;13.55;;;15.70;99.90;;;;;;5085135;28;20036;-86
2021/11/01 17:08:20;;;;;;;18.02;12.80;;;15.70;99.90;;;;;;5048682;28;20016;-85
2021/11/01 17:21:50;;;;;;;19.10;13.82;;;15.80;99.90;;;;;;5032958;28;20454;-84
2021/11/01 17:24:26;;;;;;;17.73;12.00;;;15.80;99.90;;;;;;5053879;28;20033;-85
2021/11/01 18:46:33;;;;;;;16.23;12.73;;;14.30;99.90;;;;;;5050920;28;20656;-80
2021/11/01 18:52:01;;;;;;;18.52;13.30;;;14.30;99.90;;;;;;5033578;28;20072;-81
2021/11/01 18:54:34;;;;;;;13.93;12.45;;;14.30;99.90;;;;;;5059284;28;20037;-81
2021/11/01 18:57:00;;;;;;;12.85;11.52;;;14.30;99.90;;;;;;5045130;28;20025;-80
2021/11/01 18:59:27;;;;;;;12.98;11.20;;;14.30;99.90;;;;;;5041396;28;20033;-80
2021/11/01 19:02:26;;;;;;;17.13;11.35;;;14.30;99.90;;;;;;5035744;28;20755;-82
2021/11/01 19:04:51;;;;;;;19.52;13.32;;;14.20;99.90;;;;;;5050444;28;20411;-86
2021/11/01 19:07:30;;;;;;;21.73;15.15;;;14.30;99.90;;;;;;5081531;28;20395;-84
2021/11/01 20:03:06;;;;;;;16.95;12.63;;;14.40;99.90;;;;;;5047310;28;20170;-86
2021/11/01 20:13:22;;;;;;;11.85;10.38;;;14.40;99.90;;;;;;5043806;28;20109;-85
2021/11/01 21:26:22;;;;;;;13.40;11.43;;;14.10;99.90;;;;;;5037624;28;20037;-88
2021/11/01 21:28:52;;;;;;;12.80;10.00;;;14.00;99.90;;;;;;5042900;28;20021;-89
2021/11/01 21:31:20;;;;;;;14.98;9.75;;;14.00;99.90;;;;;;5058070;28;20667;-88
2021/11/01 21:33:49;;;;;;;10.68;8.05;;;14.00;99.90;;;;;;5053852;28;20059;-88
2021/11/01 21:36:23;;;;;;;8.85;8.05;;;14.10;99.90;;;;;;5049828;28;20031;-91
2021/11/01 21:38:55;;;;;;;10.30;8.50;;;14.10;99.90;;;;;;5049516;28;20033;-89
2021/11/01 21:41:27;;;;;;;9.03;8.13;;;14.10;99.90;;;;;;5053892;28;20025;-88
2021/11/01 21:43:53;;;;;;;;;;;14.20;99.90;;;;;;5057990;28;20033;-88
2021/11/01 21:46:21;;;;;;;10.43;8.77;;;14.30;99.90;;;;;;5052548;28;19970;-88
2021/11/01 21:48:46;;;;;;;10.57;7.95;;;14.30;99.90;;;;;;5056277;28;20033;-88
2021/11/01 21:51:16;;;;;;;11.77;8.77;;;14.30;99.90;;;;;;5045765;28;20056;-90
2021/11/01 21:53:54;;;;;;;7.90;7.13;;;14.30;99.90;;;;;;5041198;28;20407;-90
2021/11/01 21:56:21;;;;;;;11.75;7.00;;;14.30;99.90;;;;;;5054363;28;20040;-86
2021/11/01 21:59:06;;;;;;;6.90;6.30;;;14.40;99.90;;;;;;5035401;28;20029;-83
2021/11/01 22:20:47;;;;;;;6.97;3.60;;;14.90;99.90;;;;;;5055872;28;20051;-89
2021/11/01 22:23:41;;;;;;;6.63;4.35;;;14.90;99.90;;;;;;5071461;28;20024;-90
2021/11/01 22:26:07;;;;;;;5.22;3.55;;;14.90;99.90;;;;;;5055372;28;20117;-85
2021/11/01 22:34:14;;;;;;;6.25;3.75;;;15.00;99.90;;;;;;5055669;28;20159;-87
2021/11/01 22:58:04;;;;;;;4.13;2.80;;;15.10;99.90;;;;;;5053618;28;20237;-84
2021/11/01 23:00:37;;;;;;;4.25;3.63;;;15.10;99.90;;;;;;5072634;28;20135;-82
2021/11/01 23:03:09;;;;;;;16.30;11.43;;;15.20;99.90;;;;;;5053488;28;20025;-87
2021/11/01 23:05:55;;;;;;;4.22;3.83;;;15.20;99.90;;;;;;5032902;28;20079;-87
2021/11/01 23:33:01;;;;;;;5.03;3.40;;;14.70;99.90;;;;;;5044732;28;20049;-88
2021/11/01 23:35:27;;;;;;;7.10;3.60;;;14.60;99.90;;;;;;5054385;28;20013;-89
2021/11/01 23:37:53;;;;;;;6.68;3.55;;;14.60;99.90;;;;;;5055206;28;20024;-88
2021/11/01 23:40:19;;;;;;;8.75;3.70;;;14.50;99.90;;;;;;5036798;28;20029;-88
2021/11/01 23:42:44;;;;;;;12.15;3.70;;;14.50;99.90;;;;;;5053075;28;20017;-88
2021/11/01 23:45:10;;;;;;;11.98;4.82;;;14.50;99.90;;;;;;5055961;28;20089;-89
2021/11/01 23:47:36;;;;;;;15.15;6.22;;;14.40;99.90;;;;;;5070001;28;20056;-88
2021/11/01 23:50:03;;;;;;;20.50;7.80;;;14.40;99.90;;;;;;5050918;28;20017;-88
2021/11/01 23:52:38;;;;;;;18.98;9.32;;;14.40;99.90;;;;;;5050513;28;20040;-88
2021/11/01 23:55:04;;;;;;;22.48;11.80;;;14.40;99.90;;;;;;5055109;28;20039;-88
2021/11/01 23:57:30;;;;;;;21.92;11.75;;;14.30;99.90;;;;;;5052458;28;20013;-89
2021/11/01 23:59:56;;;;;;;20.23;13.00;;;14.20;99.90;;;;;;5036245;28;20025;-90
